createdAt,value
2019-05-20T00:01:48.750Z,48.00
2019-05-20T00:04:15.625Z,45.20
2019-05-20T00:06:42.285Z,44.00
2019-05-20T00:09:08.966Z,48.40
2019-05-20T00:11:35.623Z,42.77
2019-05-20T00:14:02.427Z,42.33
2019-05-20T00:16:29.177Z,56.57
2019-05-20T00:18:55.958Z,55.20
2019-05-20T00:21:22.717Z,46.77
2019-05-20T00:23:49.510Z,40.30
2019-05-20T00:26:17.378Z,58.77
2019-05-20T00:28:44.062Z,47.73
2019-05-20T00:31:10.854Z,36.93
2019-05-20T00:33:37.531Z,38.93
2019-05-20T00:36:04.313Z,58.30
2019-05-20T00:38:31.156Z,53.90
2019-05-20T00:40:57.897Z,47.60
2019-05-20T00:43:24.713Z,66.30
2019-05-20T00:45:51.381Z,49.23
2019-05-20T00:48:18.040Z,68.97
2019-05-20T00:50:44.701Z,44.40
2019-05-20T00:53:11.467Z,51.23
2019-05-20T00:55:38.747Z,45.37
2019-05-20T00:58:05.505Z,45.70
2019-05-20T01:00:32.589Z,44.10
2019-05-20T01:02:59.292Z,48.13
2019-05-20T01:05:26.157Z,46.40
2019-05-20T01:07:52.820Z,48.63
2019-05-20T01:10:19.716Z,45.70
2019-05-20T01:12:46.389Z,43.70
2019-05-20T01:15:13.949Z,42.63
2019-05-20T01:17:40.621Z,57.27
2019-05-20T01:20:07.401Z,43.20
2019-05-20T01:22:35.194Z,40.83
2019-05-20T01:25:01.883Z,37.27
2019-05-20T01:27:28.557Z,35.20
2019-05-20T01:29:55.256Z,36.97
2019-05-20T01:32:22.005Z,34.73
2019-05-20T01:34:48.673Z,34.90
2019-05-20T01:37:15.325Z,33.17
2019-05-20T01:39:42.027Z,33.03
2019-05-20T01:42:08.674Z,30.10
2019-05-20T01:44:35.440Z,37.27
2019-05-20T01:47:02.105Z,36.93
2019-05-20T01:49:28.954Z,34.83
2019-05-20T01:51:55.620Z,33.00
2019-05-20T01:54:22.335Z,36.03
2019-05-20T01:56:48.982Z,28.87
2019-05-20T01:59:15.665Z,34.00
2019-05-20T02:01:42.365Z,29.80
2019-05-20T02:04:09.053Z,26.20
2019-05-20T02:06:35.742Z,42.87
2019-05-20T02:09:06.058Z,34.23
2019-05-20T02:11:32.758Z,29.80
2019-05-20T02:14:04.327Z,30.90
2019-05-20T02:16:31.273Z,27.57
2019-05-20T02:18:57.892Z,25.63
2019-05-20T02:21:24.739Z,30.97
2019-05-20T02:23:51.632Z,46.73
2019-05-20T02:26:18.418Z,28.97
2019-05-20T02:28:45.225Z,24.97
2019-05-20T02:31:13.203Z,30.57
2019-05-20T02:33:50.968Z,27.37
2019-05-20T02:36:08.807Z,50.93
2019-05-20T02:38:35.467Z,29.43
2019-05-20T02:41:02.425Z,28.53
2019-05-20T02:43:29.248Z,27.63
2019-05-20T02:45:55.990Z,37.07
2019-05-20T02:48:22.678Z,32.10
2019-05-20T02:50:49.462Z,48.93
2019-05-20T02:53:16.206Z,48.60
2019-05-20T02:55:43.240Z,34.43
2019-05-20T02:58:10.039Z,35.27
2019-05-20T03:00:36.819Z,31.13
2019-05-20T03:03:03.634Z,33.30
2019-05-20T03:05:30.304Z,34.77
2019-05-20T03:07:57.046Z,35.03
2019-05-20T03:10:23.932Z,38.47
2019-05-20T03:12:50.826Z,25.40
2019-05-20T03:15:17.994Z,29.37
2019-05-20T03:17:44.785Z,50.53
2019-05-20T03:20:11.588Z,26.13
2019-05-20T03:22:38.246Z,24.07
2019-05-20T03:25:05.420Z,29.47
2019-05-20T03:27:32.345Z,28.57
2019-05-20T03:29:59.031Z,27.10
2019-05-20T03:32:25.748Z,33.00
2019-05-20T03:34:59.452Z,36.77
2019-05-20T03:37:21.184Z,24.67
2019-05-20T03:39:47.855Z,24.30
2019-05-20T03:42:14.600Z,28.90
2019-05-20T03:44:41.346Z,21.80
2019-05-20T03:47:08.032Z,44.47
2019-05-20T03:49:40.943Z,26.70
2019-05-20T03:52:14.131Z,27.10
2019-05-20T03:54:50.249Z,24.57
2019-05-20T03:57:17.034Z,24.40
2019-05-20T03:59:45.011Z,27.37
2019-05-20T04:02:13.305Z,27.50
2019-05-20T04:04:40.286Z,27.07
2019-05-20T04:07:08.605Z,28.63
2019-05-20T04:09:37.213Z,27.67
2019-05-20T04:12:05.844Z,22.77
2019-05-20T04:14:32.715Z,31.97
2019-05-20T04:16:59.345Z,23.63
2019-05-20T04:19:26.119Z,23.00
2019-05-20T04:21:52.813Z,25.53
2019-05-20T04:24:19.577Z,46.33
2019-05-20T04:26:47.804Z,26.10
2019-05-20T04:29:14.611Z,20.30
2019-05-20T04:31:41.276Z,23.17
2019-05-20T04:34:08.048Z,31.10
2019-05-20T04:36:34.864Z,40.60
2019-05-20T04:39:01.496Z,33.73
2019-05-20T04:41:28.384Z,28.10
2019-05-20T04:43:55.171Z,32.60
2019-05-20T04:46:21.858Z,33.10
2019-05-20T04:48:48.553Z,31.97
2019-05-20T04:51:15.502Z,35.20
2019-05-20T04:53:42.154Z,31.90
2019-05-20T04:56:08.929Z,40.67
2019-05-20T04:58:35.667Z,77.17
2019-05-20T05:01:02.613Z,160.97
2019-05-20T05:03:29.291Z,62.63
2019-05-20T05:05:56.210Z,44.17
2019-05-20T05:08:23.112Z,38.43
2019-05-20T05:10:49.935Z,59.60
2019-05-20T05:13:16.823Z,65.67
2019-05-20T05:15:43.773Z,47.50
2019-05-20T05:18:10.682Z,59.07
2019-05-20T05:20:37.490Z,30.50
2019-05-20T05:23:04.359Z,31.70
2019-05-20T05:25:31.226Z,26.20
2019-05-20T05:27:57.996Z,63.37
2019-05-20T05:30:24.887Z,44.70
2019-05-20T05:32:51.576Z,38.43
2019-05-20T05:35:18.473Z,36.50
2019-05-20T05:37:45.286Z,53.70
2019-05-20T05:40:13.621Z,24.47
2019-05-20T05:42:40.302Z,64.80
2019-05-20T05:45:07.435Z,69.57
2019-05-20T05:47:34.200Z,29.03
2019-05-20T05:50:00.993Z,26.37
2019-05-20T05:52:28.731Z,25.50
2019-05-20T05:54:55.496Z,19.27
2019-05-20T05:57:22.162Z,22.40
2019-05-20T05:59:48.851Z,19.10
2019-05-20T06:02:15.564Z,17.13
2019-05-20T06:04:42.243Z,19.77
2019-05-20T06:07:09.045Z,22.10
2019-05-20T06:09:35.701Z,23.40
2019-05-20T06:12:02.592Z,84.33
2019-05-20T06:14:29.580Z,24.00
2019-05-20T06:16:56.202Z,45.10
2019-05-20T06:19:22.915Z,72.47
2019-05-20T06:21:49.739Z,27.00
2019-05-20T06:24:16.452Z,25.17
2019-05-20T06:26:43.123Z,38.77
2019-05-20T06:29:09.902Z,20.23
2019-05-20T06:31:36.718Z,25.93
2019-05-20T06:34:03.615Z,25.07
2019-05-20T06:36:34.660Z,21.73
2019-05-20T06:39:11.570Z,21.20
2019-05-20T06:41:39.017Z,17.53
2019-05-20T06:44:05.934Z,23.67
2019-05-20T06:46:32.726Z,19.50
2019-05-20T06:48:59.415Z,26.97
2019-05-20T06:51:26.086Z,22.30
2019-05-20T06:53:52.742Z,19.63
2019-05-20T06:56:19.434Z,23.93
2019-05-20T06:58:46.106Z,16.83
2019-05-20T07:01:12.793Z,17.67
2019-05-20T07:03:40.460Z,16.80
2019-05-20T07:06:07.153Z,17.63
2019-05-20T07:08:33.839Z,17.00
2019-05-20T07:11:00.524Z,45.83
2019-05-20T07:13:27.468Z,27.63
2019-05-20T07:15:54.262Z,16.47
2019-05-20T07:18:21.266Z,16.97
2019-05-20T07:20:48.080Z,17.33
2019-05-20T07:23:14.866Z,24.10
2019-05-20T07:25:41.642Z,19.43
2019-05-20T07:28:08.551Z,18.70
2019-05-20T07:30:35.218Z,18.27
2019-05-20T07:33:01.960Z,18.63
2019-05-20T07:35:30.961Z,19.57
2019-05-20T07:37:57.464Z,17.70
2019-05-20T07:40:31.640Z,18.13
2019-05-20T07:42:58.843Z,18.90
2019-05-20T07:45:26.601Z,15.50
2019-05-20T07:47:53.890Z,17.43
2019-05-20T07:50:21.191Z,15.13
2019-05-20T07:52:48.612Z,14.17
2019-05-20T07:55:15.510Z,20.27
2019-05-20T07:57:42.881Z,17.37
2019-05-20T08:00:10.276Z,18.40
2019-05-20T08:02:37.148Z,16.70
2019-05-20T08:05:04.505Z,19.00
2019-05-20T08:07:50.597Z,15.70
2019-05-20T08:09:59.997Z,19.30
2019-05-20T08:12:26.815Z,18.50
2019-05-20T08:14:54.108Z,20.77
2019-05-20T08:17:21.636Z,19.03
2019-05-20T08:19:50.499Z,16.33
2019-05-20T08:22:18.212Z,15.80
2019-05-20T08:24:45.856Z,16.10
2019-05-20T08:27:13.663Z,19.10
2019-05-20T08:29:41.504Z,19.17
2019-05-20T08:32:09.051Z,21.77
2019-05-20T08:34:37.493Z,21.33
2019-05-20T08:37:05.729Z,15.77
2019-05-20T08:39:32.617Z,17.37
2019-05-20T08:41:59.994Z,15.10
2019-05-20T08:44:27.475Z,14.47
2019-05-20T08:46:55.033Z,15.07
2019-05-20T08:49:22.814Z,15.57
2019-05-20T08:51:49.600Z,16.80
2019-05-20T08:54:16.276Z,15.83
2019-05-20T08:56:43.217Z,18.17
2019-05-20T08:59:09.890Z,16.97
2019-05-20T09:01:36.765Z,12.23
2019-05-20T09:04:03.565Z,20.10
2019-05-20T09:06:30.256Z,17.50
2019-05-20T09:08:56.953Z,17.20
2019-05-20T09:11:23.642Z,16.93
2019-05-20T09:13:50.675Z,17.27
2019-05-20T09:16:17.448Z,15.70
2019-05-20T09:18:44.172Z,17.63
2019-05-20T09:21:11.328Z,14.73
2019-05-20T09:23:38.279Z,19.80
2019-05-20T09:26:05.145Z,19.30
2019-05-20T09:28:32.052Z,22.50
2019-05-20T09:30:58.827Z,17.30
2019-05-20T09:33:25.791Z,19.20
2019-05-20T09:35:52.729Z,17.83
2019-05-20T09:38:21.305Z,19.00
2019-05-20T09:40:48.681Z,17.70
2019-05-20T09:43:15.530Z,16.47
2019-05-20T09:45:42.441Z,20.83
2019-05-20T09:48:10.244Z,23.47
2019-05-20T09:50:37.174Z,21.93
2019-05-20T09:53:06.923Z,17.40
2019-05-20T09:55:33.350Z,29.13
2019-05-20T09:58:00.543Z,22.83
2019-05-20T10:00:27.410Z,17.00
2019-05-20T10:02:54.327Z,18.27
2019-05-20T10:05:21.516Z,15.10
2019-05-20T10:07:48.209Z,17.70
2019-05-20T10:10:15.377Z,15.37
2019-05-20T10:12:46.633Z,14.00
2019-05-20T10:15:11.664Z,18.13
2019-05-20T10:17:38.475Z,16.90
2019-05-20T10:20:05.402Z,18.90
2019-05-20T10:22:32.096Z,18.03
2019-05-20T10:24:58.771Z,17.27
2019-05-20T10:27:25.623Z,22.07
2019-05-20T10:29:52.360Z,20.20
2019-05-20T10:32:19.633Z,21.77
2019-05-20T10:34:46.539Z,18.53
2019-05-20T10:37:13.243Z,18.90
2019-05-20T10:39:40.022Z,17.80
2019-05-20T10:42:06.733Z,17.30
2019-05-20T10:44:33.415Z,19.07
2019-05-20T10:47:00.108Z,20.40
2019-05-20T10:49:26.803Z,16.53
2019-05-20T10:51:53.499Z,25.77
2019-05-20T10:54:20.274Z,17.67
2019-05-20T10:56:46.960Z,16.50
2019-05-20T10:59:14.061Z,15.60
2019-05-20T11:01:41.912Z,15.67
2019-05-20T11:04:09.212Z,15.70
2019-05-20T11:06:35.944Z,15.50
2019-05-20T11:09:13.769Z,15.60
2019-05-20T11:11:33.065Z,23.07
2019-05-20T11:13:59.755Z,18.07
2019-05-20T11:16:26.594Z,15.77
2019-05-20T11:18:53.318Z,14.63
2019-05-20T11:21:20.053Z,16.07
2019-05-20T11:23:46.757Z,17.00
2019-05-20T11:26:13.948Z,16.00
2019-05-20T11:28:40.779Z,13.90
2019-05-20T11:31:07.655Z,15.23
2019-05-20T11:33:34.952Z,17.03
2019-05-20T11:36:01.800Z,17.30
2019-05-20T11:38:28.596Z,15.53
2019-05-20T11:40:55.699Z,21.07
2019-05-20T11:43:22.747Z,20.23
2019-05-20T11:45:49.679Z,24.90
2019-05-20T11:48:16.387Z,19.80
2019-05-20T11:50:43.392Z,19.47
2019-05-20T11:53:10.438Z,15.40
2019-05-20T11:55:37.134Z,16.60
2019-05-20T11:58:15.344Z,19.27
2019-05-20T12:00:32.910Z,14.27
2019-05-20T12:03:00.091Z,17.83
2019-05-20T12:05:26.828Z,18.33
2019-05-20T12:07:53.526Z,26.27
2019-05-20T12:10:20.645Z,18.27
2019-05-20T12:12:47.401Z,16.30
2019-05-20T12:15:14.588Z,18.80
2019-05-20T12:17:41.411Z,19.13
2019-05-20T12:20:10.904Z,15.60
2019-05-20T12:22:37.120Z,16.63
2019-05-20T12:25:04.201Z,16.80
2019-05-20T12:27:30.955Z,13.47
2019-05-20T12:29:57.740Z,21.23
2019-05-20T12:32:24.511Z,13.13
2019-05-20T12:34:51.527Z,12.83
2019-05-20T12:37:18.228Z,13.03
2019-05-20T12:39:45.975Z,13.67
2019-05-20T12:42:12.873Z,14.80
2019-05-20T12:44:39.555Z,14.97
2019-05-20T12:47:06.585Z,15.80
2019-05-20T12:49:33.680Z,15.50
2019-05-20T12:52:00.429Z,23.80
2019-05-20T12:54:27.114Z,14.97
2019-05-20T12:56:53.803Z,15.77
2019-05-20T12:59:20.511Z,18.93
2019-05-20T13:01:47.601Z,21.07
2019-05-20T13:04:15.550Z,20.00
2019-05-20T13:06:42.457Z,18.60
2019-05-20T13:09:09.239Z,19.07
2019-05-20T13:11:36.213Z,14.20
2019-05-20T13:14:04.240Z,21.03
2019-05-20T13:16:31.080Z,15.03
2019-05-20T13:18:57.849Z,13.33
2019-05-20T13:21:24.657Z,19.93
2019-05-20T13:23:51.480Z,16.40
2019-05-20T13:26:18.385Z,17.70
2019-05-20T13:28:45.284Z,15.10
2019-05-20T13:31:12.180Z,14.20
2019-05-20T13:33:38.866Z,13.40
2019-05-20T13:36:05.942Z,16.50
2019-05-20T13:38:32.631Z,20.70
2019-05-20T13:40:59.408Z,16.70
2019-05-20T13:43:26.290Z,29.77
2019-05-20T13:45:52.980Z,16.53
2019-05-20T13:48:19.814Z,20.20
2019-05-20T13:50:46.502Z,17.23
2019-05-20T13:53:13.300Z,19.30
2019-05-20T13:55:40.032Z,25.30
2019-05-20T13:58:06.800Z,15.77
2019-05-20T14:00:33.740Z,29.77
2019-05-20T14:03:00.528Z,12.60
2019-05-20T14:05:28.431Z,13.87
2019-05-20T14:07:55.141Z,16.47
2019-05-20T14:10:21.998Z,17.80
2019-05-20T14:12:48.714Z,17.63
2019-05-20T14:15:15.490Z,14.20
2019-05-20T14:17:42.294Z,14.60
2019-05-20T14:20:10.286Z,15.10
2019-05-20T14:22:38.001Z,15.73
2019-05-20T14:25:05.802Z,19.00
2019-05-20T14:27:33.091Z,19.17
2019-05-20T14:29:59.951Z,17.53
2019-05-20T14:32:26.658Z,17.23
2019-05-20T14:34:54.050Z,15.50
2019-05-20T14:37:21.361Z,15.73
2019-05-20T14:39:48.788Z,13.90
2019-05-20T14:42:15.773Z,16.17
2019-05-20T14:44:43.073Z,13.93
2019-05-20T14:47:09.778Z,12.60
2019-05-20T14:49:37.041Z,14.23
2019-05-20T14:52:04.121Z,30.90
2019-05-20T14:54:31.078Z,20.93
2019-05-20T14:56:58.206Z,36.53
2019-05-20T14:59:24.886Z,16.00
2019-05-20T15:01:51.600Z,28.03
2019-05-20T15:04:18.729Z,19.23
2019-05-20T15:06:45.583Z,22.83
2019-05-20T15:09:12.266Z,22.23
2019-05-20T15:11:39.153Z,14.13
2019-05-20T15:14:07.557Z,15.70
2019-05-20T15:16:34.362Z,18.90
2019-05-20T15:19:01.453Z,17.50
2019-05-20T15:21:29.551Z,19.40
2019-05-20T15:23:57.461Z,18.63
2019-05-20T15:26:24.210Z,16.30
2019-05-20T15:28:51.722Z,14.10
2019-05-20T15:31:18.756Z,22.20
2019-05-20T15:33:45.753Z,22.97
2019-05-20T15:36:12.534Z,29.30
2019-05-20T15:38:39.274Z,18.13
2019-05-20T15:41:06.159Z,16.30
2019-05-20T15:43:32.859Z,20.17
2019-05-20T15:46:39.661Z,19.43
2019-05-20T15:49:06.958Z,19.83
2019-05-20T15:51:33.804Z,18.00
2019-05-20T15:54:00.869Z,20.03
2019-05-20T15:56:27.527Z,18.30
2019-05-20T15:58:54.215Z,15.90
2019-05-20T16:01:20.995Z,21.60
2019-05-20T16:03:51.142Z,17.03
2019-05-20T16:06:17.449Z,14.70
2019-05-20T16:08:44.162Z,15.63
2019-05-20T16:11:10.825Z,13.33
2019-05-20T16:13:37.502Z,16.27
2019-05-20T16:16:04.754Z,15.50
2019-05-20T16:18:31.417Z,18.43
2019-05-20T16:20:58.270Z,13.43
2019-05-20T16:23:27.102Z,14.13
2019-05-20T16:25:53.900Z,14.37
2019-05-20T16:28:20.670Z,14.30
2019-05-20T16:30:47.569Z,17.20
2019-05-20T16:33:14.232Z,16.00
2019-05-20T16:35:42.229Z,14.80
2019-05-20T16:38:09.027Z,13.77
2019-05-20T16:40:35.817Z,14.10
2019-05-20T16:43:02.805Z,13.43
2019-05-20T16:45:29.587Z,12.50
2019-05-20T16:47:56.356Z,17.67
2019-05-20T16:50:23.042Z,16.03
2019-05-20T16:52:49.882Z,12.80
2019-05-20T16:55:16.770Z,12.47
2019-05-20T16:57:43.835Z,13.77
2019-05-20T17:00:30.110Z,14.80
2019-05-20T17:02:40.504Z,13.97
2019-05-20T17:05:07.701Z,12.53
2019-05-20T17:07:34.707Z,12.80
2019-05-20T17:10:01.676Z,13.67
2019-05-20T17:12:28.574Z,13.07
2019-05-20T17:14:55.672Z,13.63
2019-05-20T17:17:22.444Z,18.50
2019-05-20T17:19:49.350Z,21.47
2019-05-20T17:22:16.173Z,13.40
2019-05-20T17:24:43.691Z,13.70
2019-05-20T17:27:10.490Z,12.90
2019-05-20T17:29:37.609Z,13.67
2019-05-20T17:32:04.299Z,14.00
2019-05-20T17:34:30.980Z,20.20
2019-05-20T17:36:58.126Z,16.73
2019-05-20T17:39:24.947Z,15.60
2019-05-20T17:41:51.794Z,14.90
2019-05-20T17:44:19.886Z,21.27
2019-05-20T17:46:51.397Z,24.70
2019-05-20T17:49:20.447Z,18.37
2019-05-20T17:51:47.302Z,16.13
2019-05-20T17:54:14.477Z,18.33
2019-05-20T17:56:41.156Z,18.50
2019-05-20T17:59:08.042Z,14.37
2019-05-20T18:01:35.081Z,24.73
2019-05-20T18:04:03.275Z,18.37
2019-05-20T18:06:30.590Z,16.23
2019-05-20T18:08:59.892Z,39.10
2019-05-20T18:11:27.385Z,26.43
2019-05-20T18:13:54.409Z,16.40
2019-05-20T18:16:21.103Z,12.60
2019-05-20T18:18:47.898Z,14.87
2019-05-20T18:21:14.961Z,28.33
2019-05-20T18:23:42.010Z,21.17
2019-05-20T18:26:10.278Z,34.63
2019-05-20T18:28:36.971Z,38.57
2019-05-20T18:31:03.791Z,22.20
2019-05-20T18:33:30.499Z,24.30
2019-05-20T18:35:57.511Z,65.13
2019-05-20T18:38:24.970Z,45.70
2019-05-20T18:40:51.967Z,19.93
2019-05-20T18:43:18.837Z,15.93
2019-05-20T18:45:45.599Z,56.20
2019-05-20T18:48:12.613Z,34.23
2019-05-20T18:50:39.425Z,14.90
2019-05-20T18:53:06.620Z,52.53
2019-05-20T18:55:34.997Z,30.37
2019-05-20T18:58:01.882Z,37.33
2019-05-20T19:00:28.972Z,21.93
2019-05-20T19:02:55.928Z,17.60
2019-05-20T19:05:22.865Z,42.27
2019-05-20T19:07:49.814Z,17.47
2019-05-20T19:10:17.438Z,41.20
2019-05-20T19:12:44.136Z,32.17
2019-05-20T19:15:11.890Z,23.73
2019-05-20T19:17:39.879Z,21.13
2019-05-20T19:20:06.845Z,23.97
2019-05-20T19:22:33.644Z,24.10
2019-05-20T19:25:00.494Z,27.57
2019-05-20T19:27:27.374Z,19.47
2019-05-20T19:29:54.198Z,20.30
2019-05-20T19:32:21.844Z,14.43
2019-05-20T19:34:48.831Z,19.93
2019-05-20T19:37:15.803Z,23.10
2019-05-20T19:39:42.593Z,31.97
2019-05-20T19:42:09.587Z,18.27
2019-05-20T19:44:36.770Z,48.63
2019-05-20T19:47:03.926Z,28.60
2019-05-20T19:49:30.603Z,43.93
2019-05-20T19:51:59.955Z,23.90
2019-05-20T19:54:27.562Z,48.40
2019-05-20T19:56:54.259Z,25.53
2019-05-20T19:59:21.435Z,46.83
2019-05-20T20:01:48.178Z,19.90
2019-05-20T20:04:14.781Z,41.07
2019-05-20T20:06:41.761Z,13.80
2019-05-20T20:09:08.436Z,25.53
2019-05-20T20:11:35.202Z,30.27
2019-05-20T20:14:02.185Z,24.30
2019-05-20T20:16:28.956Z,23.70
2019-05-20T20:18:55.770Z,20.37
2019-05-20T20:21:22.474Z,22.30
2019-05-20T20:23:49.314Z,10.83
2019-05-20T20:26:16.010Z,21.00
2019-05-20T20:28:42.689Z,22.03
2019-05-20T20:31:11.062Z,7.63
2019-05-20T20:33:38.160Z,21.70
2019-05-20T20:36:05.031Z,10.13
2019-05-20T20:38:31.712Z,10.17
2019-05-20T20:40:58.384Z,10.30
2019-05-20T20:43:25.278Z,15.80
2019-05-20T20:45:51.948Z,9.23
2019-05-20T20:48:18.842Z,13.77
2019-05-20T20:50:45.553Z,7.00
2019-05-20T20:53:12.231Z,8.93
2019-05-20T20:55:39.579Z,6.80
2019-05-20T20:58:06.301Z,101.03
2019-05-20T21:00:33.048Z,33.77
2019-05-20T21:02:59.739Z,70.07
2019-05-20T21:05:27.082Z,71.63
2019-05-20T21:07:53.754Z,128.07
2019-05-20T21:10:20.749Z,54.23
2019-05-20T21:12:48.453Z,12.50
2019-05-20T21:15:15.334Z,43.43
2019-05-20T21:17:44.183Z,50.17
2019-05-20T21:20:11.392Z,10.10
2019-05-20T21:22:38.206Z,6.40
2019-05-20T21:25:07.894Z,25.90
2019-05-20T21:27:34.613Z,27.40
2019-05-20T21:30:01.335Z,15.53
2019-05-20T21:32:29.506Z,11.83
2019-05-20T21:34:57.138Z,6.00
2019-05-20T21:37:23.922Z,9.83
2019-05-20T21:39:50.607Z,10.17
2019-05-20T21:42:17.398Z,10.20
2019-05-20T21:44:44.121Z,15.50
2019-05-20T21:47:10.927Z,8.37
2019-05-20T21:49:37.627Z,7.37
2019-05-20T21:52:04.311Z,11.10
2019-05-20T21:54:31.443Z,6.77
2019-05-20T21:56:58.331Z,7.57
2019-05-20T21:59:25.142Z,7.43
2019-05-20T22:01:51.958Z,8.20
2019-05-20T22:04:19.051Z,7.20
2019-05-20T22:06:45.920Z,7.37
2019-05-20T22:09:12.596Z,6.47
2019-05-20T22:11:39.942Z,7.97
2019-05-20T22:14:07.270Z,7.07
2019-05-20T22:16:34.905Z,8.60
2019-05-20T22:19:02.040Z,21.13
2019-05-20T22:21:35.688Z,25.40
2019-05-20T22:24:05.220Z,11.27
2019-05-20T22:26:32.650Z,9.87
2019-05-20T22:29:00.140Z,6.70
2019-05-20T22:31:32.910Z,7.07
2019-05-20T22:34:00.266Z,5.80
2019-05-20T22:36:27.851Z,7.80
2019-05-20T22:38:54.838Z,26.60
2019-05-20T22:41:27.866Z,9.00
2019-05-20T22:43:55.933Z,13.47
2019-05-20T22:46:23.742Z,13.43
2019-05-20T22:48:51.177Z,6.80
2019-05-20T22:51:18.668Z,8.17
2019-05-20T22:53:46.791Z,18.60
2019-05-20T22:56:23.312Z,15.60
2019-05-20T22:58:50.817Z,8.17
2019-05-20T23:01:20.510Z,6.67
2019-05-20T23:04:15.410Z,7.33
2019-05-20T23:06:42.790Z,12.97
2019-05-20T23:09:11.010Z,8.00
2019-05-20T23:11:38.678Z,10.27
2019-05-20T23:14:05.677Z,9.23
2019-05-20T23:16:35.594Z,8.63
2019-05-20T23:19:08.858Z,10.60
2019-05-20T23:21:35.750Z,9.40
2019-05-20T23:24:08.880Z,6.33
2019-05-20T23:26:35.848Z,9.33
2019-05-20T23:29:03.942Z,7.43
2019-05-20T23:31:33.516Z,7.53
2019-05-20T23:34:12.285Z,13.40
2019-05-20T23:36:30.483Z,5.80
2019-05-20T23:39:00.687Z,7.20
2019-05-20T23:41:27.658Z,7.80
2019-05-20T23:44:00.335Z,12.87
2019-05-20T23:46:27.326Z,7.23
2019-05-20T23:48:54.348Z,6.50
2019-05-20T23:51:21.316Z,5.40
2019-05-20T23:53:48.293Z,8.90
2019-05-20T23:56:15.277Z,14.73
2019-05-20T23:58:42.259Z,17.67
